sensor_id;sensor_type;location;lat;lon;timestamp;temperature;humidity
37240;DHT22;23130;48.760;9.178;2023-06-19T00:02:08;22.90;88.20
37240;DHT22;23130;48.760;9.178;2023-06-19T00:04:33;22.90;88.10
37240;DHT22;23130;48.760;9.178;2023-06-19T00:07:03;22.80;88.40
37240;DHT22;23130;48.760;9.178;2023-06-19T00:09:29;22.80;88.20
37240;DHT22;23130;48.760;9.178;2023-06-19T00:11:54;22.80;88.40
37240;DHT22;23130;48.760;9.178;2023-06-19T00:14:20;22.80;88.50
37240;DHT22;23130;48.760;9.178;2023-06-19T00:16:45;22.70;88.30
37240;DHT22;23130;48.760;9.178;2023-06-19T00:19:11;22.70;88.40
37240;DHT22;23130;48.760;9.178;2023-06-19T00:21:38;22.70;89.10
37240;DHT22;23130;48.760;9.178;2023-06-19T00:24:04;22.70;88.70
37240;DHT22;23130;48.760;9.178;2023-06-19T00:26:30;22.70;89.30
37240;DHT22;23130;48.760;9.178;2023-06-19T00:28:56;22.70;88.90
37240;DHT22;23130;48.760;9.178;2023-06-19T00:31:22;22.80;88.50
37240;DHT22;23130;48.760;9.178;2023-06-19T00:33:47;22.90;88.50
37240;DHT22;23130;48.760;9.178;2023-06-19T00:36:15;23.00;88.20
37240;DHT22;23130;48.760;9.178;2023-06-19T00:38:41;23.10;88.00
37240;DHT22;23130;48.760;9.178;2023-06-19T00:41:08;23.10;88.20
37240;DHT22;23130;48.760;9.178;2023-06-19T00:43:34;23.10;88.20
37240;DHT22;23130;48.760;9.178;2023-06-19T00:46:00;23.00;88.60
37240;DHT22;23130;48.760;9.178;2023-06-19T00:48:27;22.90;88.30
37240;DHT22;23130;48.760;9.178;2023-06-19T00:50:54;22.90;88.80
37240;DHT22;23130;48.760;9.178;2023-06-19T00:53:21;22.90;88.90
37240;DHT22;23130;48.760;9.178;2023-06-19T00:55:47;22.80;89.10
37240;DHT22;23130;48.760;9.178;2023-06-19T00:58:13;22.80;89.30
37240;DHT22;23130;48.760;9.178;2023-06-19T01:01:00;22.80;89.00
37240;DHT22;23130;48.760;9.178;2023-06-19T01:03:26;22.90;89.20
37240;DHT22;23130;48.760;9.178;2023-06-19T01:05:53;22.90;89.50
37240;DHT22;23130;48.760;9.178;2023-06-19T01:11:02;22.90;89.10
37240;DHT22;23130;48.760;9.178;2023-06-19T01:13:59;22.90;89.30
37240;DHT22;23130;48.760;9.178;2023-06-19T01:16:26;23.00;89.40
37240;DHT22;23130;48.760;9.178;2023-06-19T01:18:53;23.00;89.40
37240;DHT22;23130;48.760;9.178;2023-06-19T01:21:19;23.00;89.30
37240;DHT22;23130;48.760;9.178;2023-06-19T01:23:45;23.10;88.80
37240;DHT22;23130;48.760;9.178;2023-06-19T01:26:12;23.10;88.60
37240;DHT22;23130;48.760;9.178;2023-06-19T01:28:41;23.10;89.10
37240;DHT22;23130;48.760;9.178;2023-06-19T01:31:13;22.90;89.80
37240;DHT22;23130;48.760;9.178;2023-06-19T01:33:42;22.80;89.60
37240;DHT22;23130;48.760;9.178;2023-06-19T01:36:09;22.70;90.10
37240;DHT22;23130;48.760;9.178;2023-06-19T01:38:36;22.60;90.40
37240;DHT22;23130;48.760;9.178;2023-06-19T01:41:04;22.40;90.60
37240;DHT22;23130;48.760;9.178;2023-06-19T01:43:31;22.30;90.90
37240;DHT22;23130;48.760;9.178;2023-06-19T01:45:58;22.20;91.10
37240;DHT22;23130;48.760;9.178;2023-06-19T01:48:24;22.10;91.20
37240;DHT22;23130;48.760;9.178;2023-06-19T01:50:50;22.00;91.80
37240;DHT22;23130;48.760;9.178;2023-06-19T01:53:16;22.00;92.50
37240;DHT22;23130;48.760;9.178;2023-06-19T01:55:42;22.00;92.70
37240;DHT22;23130;48.760;9.178;2023-06-19T01:58:07;21.90;92.90
37240;DHT22;23130;48.760;9.178;2023-06-19T02:00:33;21.80;93.10
37240;DHT22;23130;48.760;9.178;2023-06-19T02:03:03;21.80;93.30
37240;DHT22;23130;48.760;9.178;2023-06-19T02:05:32;21.80;93.60
37240;DHT22;23130;48.760;9.178;2023-06-19T02:07:58;21.80;93.70
37240;DHT22;23130;48.760;9.178;2023-06-19T02:10:23;21.70;93.90
37240;DHT22;23130;48.760;9.178;2023-06-19T02:12:49;21.60;94.10
37240;DHT22;23130;48.760;9.178;2023-06-19T02:15:15;21.60;94.30
37240;DHT22;23130;48.760;9.178;2023-06-19T02:17:40;21.60;94.70
37240;DHT22;23130;48.760;9.178;2023-06-19T02:20:08;21.50;95.00
37240;DHT22;23130;48.760;9.178;2023-06-19T02:22:35;21.50;95.30
37240;DHT22;23130;48.760;9.178;2023-06-19T02:25:00;21.50;95.80
37240;DHT22;23130;48.760;9.178;2023-06-19T02:27:26;21.50;96.30
37240;DHT22;23130;48.760;9.178;2023-06-19T02:29:52;21.50;96.60
37240;DHT22;23130;48.760;9.178;2023-06-19T02:32:17;21.50;97.20
37240;DHT22;23130;48.760;9.178;2023-06-19T02:34:43;21.40;97.50
37240;DHT22;23130;48.760;9.178;2023-06-19T02:37:08;21.50;98.00
37240;DHT22;23130;48.760;9.178;2023-06-19T02:39:34;21.50;98.10
37240;DHT22;23130;48.760;9.178;2023-06-19T02:41:59;21.40;98.60
37240;DHT22;23130;48.760;9.178;2023-06-19T02:44:25;21.40;98.90
37240;DHT22;23130;48.760;9.178;2023-06-19T02:46:51;21.40;99.20
37240;DHT22;23130;48.760;9.178;2023-06-19T02:49:16;21.30;99.30
37240;DHT22;23130;48.760;9.178;2023-06-19T02:51:42;21.30;99.60
37240;DHT22;23130;48.760;9.178;2023-06-19T02:54:07;21.40;99.70
37240;DHT22;23130;48.760;9.178;2023-06-19T02:56:33;21.40;99.60
37240;DHT22;23130;48.760;9.178;2023-06-19T02:58:58;21.40;99.80
37240;DHT22;23130;48.760;9.178;2023-06-19T03:01:24;21.40;99.90
37240;DHT22;23130;48.760;9.178;2023-06-19T03:03:49;21.50;99.90
37240;DHT22;23130;48.760;9.178;2023-06-19T03:06:17;21.50;99.90
37240;DHT22;23130;48.760;9.178;2023-06-19T03:08:43;21.50;99.90
37240;DHT22;23130;48.760;9.178;2023-06-19T03:11:09;21.50;99.90
37240;DHT22;23130;48.760;9.178;2023-06-19T03:13:47;21.50;99.90
37240;DHT22;23130;48.760;9.178;2023-06-19T03:16:13;21.50;99.90
37240;DHT22;23130;48.760;9.178;2023-06-19T03:18:40;21.50;99.90
37240;DHT22;23130;48.760;9.178;2023-06-19T03:21:06;21.50;99.90
37240;DHT22;23130;48.760;9.178;2023-06-19T03:23:32;21.50;99.90
37240;DHT22;23130;48.760;9.178;2023-06-19T03:25:58;21.50;99.90
37240;DHT22;23130;48.760;9.178;2023-06-19T03:28:23;21.50;99.90
37240;DHT22;23130;48.760;9.178;2023-06-19T03:30:50;21.40;99.90
37240;DHT22;23130;48.760;9.178;2023-06-19T03:33:15;21.40;99.90
37240;DHT22;23130;48.760;9.178;2023-06-19T03:35:41;21.40;99.90
37240;DHT22;23130;48.760;9.178;2023-06-19T03:38:06;21.30;99.90
37240;DHT22;23130;48.760;9.178;2023-06-19T03:40:32;21.30;99.90
37240;DHT22;23130;48.760;9.178;2023-06-19T03:42:57;21.20;99.90
37240;DHT22;23130;48.760;9.178;2023-06-19T03:45:23;21.20;99.90
37240;DHT22;23130;48.760;9.178;2023-06-19T03:47:48;21.10;99.90
37240;DHT22;23130;48.760;9.178;2023-06-19T03:50:14;21.00;99.90
37240;DHT22;23130;48.760;9.178;2023-06-19T03:52:40;20.90;99.90
37240;DHT22;23130;48.760;9.178;2023-06-19T03:55:05;20.70;99.90
37240;DHT22;23130;48.760;9.178;2023-06-19T03:57:31;20.40;99.90
37240;DHT22;23130;48.760;9.178;2023-06-19T03:59:57;20.30;99.90
37240;DHT22;23130;48.760;9.178;2023-06-19T04:02:22;20.10;99.90
37240;DHT22;23130;48.760;9.178;2023-06-19T04:04:48;20.00;99.90
37240;DHT22;23130;48.760;9.178;2023-06-19T04:07:13;20.00;99.90
37240;DHT22;23130;48.760;9.178;2023-06-19T04:09:39;20.00;99.90
37240;DHT22;23130;48.760;9.178;2023-06-19T04:12:05;20.10;99.90
37240;DHT22;23130;48.760;9.178;2023-06-19T04:14:30;20.20;99.90
37240;DHT22;23130;48.760;9.178;2023-06-19T04:16:56;20.30;99.90
37240;DHT22;23130;48.760;9.178;2023-06-19T04:19:21;20.30;99.90
37240;DHT22;23130;48.760;9.178;2023-06-19T04:21:47;20.30;99.90
37240;DHT22;23130;48.760;9.178;2023-06-19T04:24:13;20.30;99.90
37240;DHT22;23130;48.760;9.178;2023-06-19T04:26:38;20.20;99.90
37240;DHT22;23130;48.760;9.178;2023-06-19T04:29:04;20.20;99.90
37240;DHT22;23130;48.760;9.178;2023-06-19T04:31:32;20.20;99.90
37240;DHT22;23130;48.760;9.178;2023-06-19T04:33:57;20.30;99.90
37240;DHT22;23130;48.760;9.178;2023-06-19T04:36:23;20.50;99.90
37240;DHT22;23130;48.760;9.178;2023-06-19T04:38:48;20.60;99.90
37240;DHT22;23130;48.760;9.178;2023-06-19T04:41:16;20.70;99.90
37240;DHT22;23130;48.760;9.178;2023-06-19T04:43:42;20.90;99.90
37240;DHT22;23130;48.760;9.178;2023-06-19T04:46:07;21.00;99.90
37240;DHT22;23130;48.760;9.178;2023-06-19T04:48:33;21.30;99.90
37240;DHT22;23130;48.760;9.178;2023-06-19T04:51:01;21.40;99.90
37240;DHT22;23130;48.760;9.178;2023-06-19T04:53:27;21.70;99.90
37240;DHT22;23130;48.760;9.178;2023-06-19T04:55:53;22.00;99.90
37240;DHT22;23130;48.760;9.178;2023-06-19T04:58:21;22.40;99.90
37240;DHT22;23130;48.760;9.178;2023-06-19T05:00:47;22.90;99.90
37240;DHT22;23130;48.760;9.178;2023-06-19T05:03:17;23.20;99.90
37240;DHT22;23130;48.760;9.178;2023-06-19T05:05:43;24.00;99.90
37240;DHT22;23130;48.760;9.178;2023-06-19T05:08:09;24.70;99.90
37240;DHT22;23130;48.760;9.178;2023-06-19T05:10:35;25.60;99.90
37240;DHT22;23130;48.760;9.178;2023-06-19T05:13:00;26.70;99.00
37240;DHT22;23130;48.760;9.178;2023-06-19T05:15:27;27.10;97.50
37240;DHT22;23130;48.760;9.178;2023-06-19T05:17:53;27.10;97.60
37240;DHT22;23130;48.760;9.178;2023-06-19T05:20:19;27.00;97.20
37240;DHT22;23130;48.760;9.178;2023-06-19T05:22:45;26.70;97.40
37240;DHT22;23130;48.760;9.178;2023-06-19T05:25:10;26.50;97.50
37240;DHT22;23130;48.760;9.178;2023-06-19T05:27:36;26.20;97.80
37240;DHT22;23130;48.760;9.178;2023-06-19T05:30:02;25.80;98.20
37240;DHT22;23130;48.760;9.178;2023-06-19T05:32:27;25.20;98.90
37240;DHT22;23130;48.760;9.178;2023-06-19T05:34:53;24.70;99.80
37240;DHT22;23130;48.760;9.178;2023-06-19T05:37:18;24.30;99.90
37240;DHT22;23130;48.760;9.178;2023-06-19T05:39:44;24.00;99.90
37240;DHT22;23130;48.760;9.178;2023-06-19T05:42:09;23.80;99.90
37240;DHT22;23130;48.760;9.178;2023-06-19T05:44:35;23.50;99.90
37240;DHT22;23130;48.760;9.178;2023-06-19T05:47:01;23.60;99.90
37240;DHT22;23130;48.760;9.178;2023-06-19T05:49:26;23.60;99.90
37240;DHT22;23130;48.760;9.178;2023-06-19T05:51:52;23.90;99.90
37240;DHT22;23130;48.760;9.178;2023-06-19T05:54:17;24.50;99.90
37240;DHT22;23130;48.760;9.178;2023-06-19T05:56:43;25.80;99.90
37240;DHT22;23130;48.760;9.178;2023-06-19T05:59:09;26.90;98.30
37240;DHT22;23130;48.760;9.178;2023-06-19T06:01:34;27.60;96.90
37240;DHT22;23130;48.760;9.178;2023-06-19T06:04:00;27.90;96.20
37240;DHT22;23130;48.760;9.178;2023-06-19T06:06:28;27.70;95.90
37240;DHT22;23130;48.760;9.178;2023-06-19T06:08:53;27.00;96.80
37240;DHT22;23130;48.760;9.178;2023-06-19T06:11:20;26.70;97.20
37240;DHT22;23130;48.760;9.178;2023-06-19T06:13:45;26.70;97.20
37240;DHT22;23130;48.760;9.178;2023-06-19T06:16:11;26.40;97.60
37240;DHT22;23130;48.760;9.178;2023-06-19T06:18:36;26.30;97.60
37240;DHT22;23130;48.760;9.178;2023-06-19T06:21:02;26.30;97.90
37240;DHT22;23130;48.760;9.178;2023-06-19T06:23:29;26.10;98.40
37240;DHT22;23130;48.760;9.178;2023-06-19T06:25:54;26.40;98.50
37240;DHT22;23130;48.760;9.178;2023-06-19T06:28:26;26.80;97.40
37240;DHT22;23130;48.760;9.178;2023-06-19T06:30:52;27.00;96.80
37240;DHT22;23130;48.760;9.178;2023-06-19T06:33:17;27.30;96.40
37240;DHT22;23130;48.760;9.178;2023-06-19T06:35:43;27.90;95.70
37240;DHT22;23130;48.760;9.178;2023-06-19T06:38:09;29.10;94.80
37240;DHT22;23130;48.760;9.178;2023-06-19T06:40:35;30.50;93.30
37240;DHT22;23130;48.760;9.178;2023-06-19T06:43:00;31.40;92.20
37240;DHT22;23130;48.760;9.178;2023-06-19T06:45:26;32.10;90.80
37240;DHT22;23130;48.760;9.178;2023-06-19T06:47:51;31.80;90.00
37240;DHT22;23130;48.760;9.178;2023-06-19T06:50:17;31.80;90.10
37240;DHT22;23130;48.760;9.178;2023-06-19T06:52:43;32.30;89.10
37240;DHT22;23130;48.760;9.178;2023-06-19T06:55:08;31.90;87.70
37240;DHT22;23130;48.760;9.178;2023-06-19T06:57:37;31.20;88.80
37240;DHT22;23130;48.760;9.178;2023-06-19T07:00:04;30.30;89.60
37240;DHT22;23130;48.760;9.178;2023-06-19T07:02:31;29.20;90.90
37240;DHT22;23130;48.760;9.178;2023-06-19T07:04:56;28.60;91.70
37240;DHT22;23130;48.760;9.178;2023-06-19T07:07:22;28.30;92.10
37240;DHT22;23130;48.760;9.178;2023-06-19T07:09:47;28.00;93.10
37240;DHT22;23130;48.760;9.178;2023-06-19T07:12:13;27.60;92.70
37240;DHT22;23130;48.760;9.178;2023-06-19T07:14:38;27.50;92.80
37240;DHT22;23130;48.760;9.178;2023-06-19T07:17:04;27.20;93.70
37240;DHT22;23130;48.760;9.178;2023-06-19T07:19:32;27.10;93.80
37240;DHT22;23130;48.760;9.178;2023-06-19T07:21:58;27.20;93.30
37240;DHT22;23130;48.760;9.178;2023-06-19T07:24:24;27.30;93.40
37240;DHT22;23130;48.760;9.178;2023-06-19T07:26:50;27.60;92.90
37240;DHT22;23130;48.760;9.178;2023-06-19T07:29:15;28.20;92.60
37240;DHT22;23130;48.760;9.178;2023-06-19T07:31:41;29.20;92.00
37240;DHT22;23130;48.760;9.178;2023-06-19T07:34:09;30.80;90.30
37240;DHT22;23130;48.760;9.178;2023-06-19T07:36:35;32.20;87.80
37240;DHT22;23130;48.760;9.178;2023-06-19T07:39:00;32.90;85.00
37240;DHT22;23130;48.760;9.178;2023-06-19T07:41:26;33.50;84.40
37240;DHT22;23130;48.760;9.178;2023-06-19T07:43:52;33.90;83.10
37240;DHT22;23130;48.760;9.178;2023-06-19T07:46:17;33.70;82.50
37240;DHT22;23130;48.760;9.178;2023-06-19T07:48:43;34.20;81.70
37240;DHT22;23130;48.760;9.178;2023-06-19T07:51:08;34.10;81.20
37240;DHT22;23130;48.760;9.178;2023-06-19T07:53:35;33.90;80.70
37240;DHT22;23130;48.760;9.178;2023-06-19T07:56:01;33.40;81.60
37240;DHT22;23130;48.760;9.178;2023-06-19T07:58:26;32.60;83.70
37240;DHT22;23130;48.760;9.178;2023-06-19T08:00:52;32.30;83.60
37240;DHT22;23130;48.760;9.178;2023-06-19T08:03:17;32.40;83.40
37240;DHT22;23130;48.760;9.178;2023-06-19T08:05:46;32.50;83.50
37240;DHT22;23130;48.760;9.178;2023-06-19T08:08:12;31.90;84.10
37240;DHT22;23130;48.760;9.178;2023-06-19T08:10:38;31.30;84.90
37240;DHT22;23130;48.760;9.178;2023-06-19T08:13:03;31.00;85.10
37240;DHT22;23130;48.760;9.178;2023-06-19T08:15:29;30.70;86.10
37240;DHT22;23130;48.760;9.178;2023-06-19T08:17:54;30.20;86.20
37240;DHT22;23130;48.760;9.178;2023-06-19T08:20:21;29.80;87.40
37240;DHT22;23130;48.760;9.178;2023-06-19T08:22:46;29.30;88.90
37240;DHT22;23130;48.760;9.178;2023-06-19T08:25:12;28.70;89.80
37240;DHT22;23130;48.760;9.178;2023-06-19T08:27:37;28.60;90.00
37240;DHT22;23130;48.760;9.178;2023-06-19T08:30:03;28.40;90.40
37240;DHT22;23130;48.760;9.178;2023-06-19T08:32:29;28.30;90.70
37240;DHT22;23130;48.760;9.178;2023-06-19T08:34:54;28.10;90.60
37240;DHT22;23130;48.760;9.178;2023-06-19T08:37:20;27.90;90.90
37240;DHT22;23130;48.760;9.178;2023-06-19T08:39:45;27.80;91.20
37240;DHT22;23130;48.760;9.178;2023-06-19T08:42:11;27.80;91.10
37240;DHT22;23130;48.760;9.178;2023-06-19T08:44:37;27.70;91.50
37240;DHT22;23130;48.760;9.178;2023-06-19T08:47:03;27.90;91.40
37240;DHT22;23130;48.760;9.178;2023-06-19T08:49:30;28.10;90.90
37240;DHT22;23130;48.760;9.178;2023-06-19T08:51:56;28.20;90.90
37240;DHT22;23130;48.760;9.178;2023-06-19T08:54:22;28.20;90.70
37240;DHT22;23130;48.760;9.178;2023-06-19T08:56:48;28.20;90.80
37240;DHT22;23130;48.760;9.178;2023-06-19T08:59:17;28.20;90.60
37240;DHT22;23130;48.760;9.178;2023-06-19T09:01:51;28.40;91.10
37240;DHT22;23130;48.760;9.178;2023-06-19T09:04:18;28.40;91.20
37240;DHT22;23130;48.760;9.178;2023-06-19T09:07:04;28.70;90.50
37240;DHT22;23130;48.760;9.178;2023-06-19T09:09:29;29.00;90.00
37240;DHT22;23130;48.760;9.178;2023-06-19T09:12:12;29.00;89.60
37240;DHT22;23130;48.760;9.178;2023-06-19T09:14:39;29.00;89.50
37240;DHT22;23130;48.760;9.178;2023-06-19T09:17:07;29.20;90.40
37240;DHT22;23130;48.760;9.178;2023-06-19T09:19:36;29.20;88.70
37240;DHT22;23130;48.760;9.178;2023-06-19T09:22:03;29.30;87.90
37240;DHT22;23130;48.760;9.178;2023-06-19T09:24:40;29.40;88.00
37240;DHT22;23130;48.760;9.178;2023-06-19T09:27:10;29.50;88.60
37240;DHT22;23130;48.760;9.178;2023-06-19T09:29:41;29.60;87.20
37240;DHT22;23130;48.760;9.178;2023-06-19T09:32:24;29.80;86.70
37240;DHT22;23130;48.760;9.178;2023-06-19T09:34:51;29.70;86.60
37240;DHT22;23130;48.760;9.178;2023-06-19T09:37:25;29.90;86.50
37240;DHT22;23130;48.760;9.178;2023-06-19T09:39:59;30.10;86.50
37240;DHT22;23130;48.760;9.178;2023-06-19T09:42:33;30.30;85.60
37240;DHT22;23130;48.760;9.178;2023-06-19T09:45:07;30.10;85.70
37240;DHT22;23130;48.760;9.178;2023-06-19T09:50:03;29.60;86.70
37240;DHT22;23130;48.760;9.178;2023-06-19T09:52:29;29.60;87.40
37240;DHT22;23130;48.760;9.178;2023-06-19T09:54:56;29.50;86.60
37240;DHT22;23130;48.760;9.178;2023-06-19T09:57:23;29.70;86.40
37240;DHT22;23130;48.760;9.178;2023-06-19T09:59:58;30.00;85.60
37240;DHT22;23130;48.760;9.178;2023-06-19T10:02:33;30.30;87.50
37240;DHT22;23130;48.760;9.178;2023-06-19T10:04:59;30.30;87.50
37240;DHT22;23130;48.760;9.178;2023-06-19T10:07:33;30.50;87.40
37240;DHT22;23130;48.760;9.178;2023-06-19T10:10:05;30.70;87.10
37240;DHT22;23130;48.760;9.178;2023-06-19T10:12:46;30.50;87.10
37240;DHT22;23130;48.760;9.178;2023-06-19T10:15:26;30.30;87.20
37240;DHT22;23130;48.760;9.178;2023-06-19T10:18:03;29.90;88.30
37240;DHT22;23130;48.760;9.178;2023-06-19T10:20:35;29.90;87.80
37240;DHT22;23130;48.760;9.178;2023-06-19T10:25:40;29.60;88.40
37240;DHT22;23130;48.760;9.178;2023-06-19T10:28:29;29.60;88.50
37240;DHT22;23130;48.760;9.178;2023-06-19T10:30:57;29.50;89.00
37240;DHT22;23130;48.760;9.178;2023-06-19T10:33:25;29.50;88.00
37240;DHT22;23130;48.760;9.178;2023-06-19T10:35:51;30.00;88.70
37240;DHT22;23130;48.760;9.178;2023-06-19T10:38:17;30.50;88.50
37240;DHT22;23130;48.760;9.178;2023-06-19T10:40:44;31.30;87.30
37240;DHT22;23130;48.760;9.178;2023-06-19T10:43:11;31.60;86.80
37240;DHT22;23130;48.760;9.178;2023-06-19T10:45:36;31.70;86.30
37240;DHT22;23130;48.760;9.178;2023-06-19T10:48:05;31.50;85.90
37240;DHT22;23130;48.760;9.178;2023-06-19T10:50:42;31.60;85.90
37240;DHT22;23130;48.760;9.178;2023-06-19T10:53:07;31.80;85.80
37240;DHT22;23130;48.760;9.178;2023-06-19T10:55:33;31.70;85.90
37240;DHT22;23130;48.760;9.178;2023-06-19T10:57:59;31.20;86.50
37240;DHT22;23130;48.760;9.178;2023-06-19T11:00:27;30.60;87.90
37240;DHT22;23130;48.760;9.178;2023-06-19T11:02:54;29.80;89.90
37240;DHT22;23130;48.760;9.178;2023-06-19T11:05:21;29.60;90.20
37240;DHT22;23130;48.760;9.178;2023-06-19T11:07:54;29.50;90.10
37240;DHT22;23130;48.760;9.178;2023-06-19T11:10:20;29.40;90.10
37240;DHT22;23130;48.760;9.178;2023-06-19T11:12:48;29.50;90.60
37240;DHT22;23130;48.760;9.178;2023-06-19T11:15:14;29.80;90.60
37240;DHT22;23130;48.760;9.178;2023-06-19T11:17:39;30.30;89.90
37240;DHT22;23130;48.760;9.178;2023-06-19T11:20:12;31.00;88.80
37240;DHT22;23130;48.760;9.178;2023-06-19T11:22:41;31.10;88.80
37240;DHT22;23130;48.760;9.178;2023-06-19T11:25:08;31.50;88.20
37240;DHT22;23130;48.760;9.178;2023-06-19T11:27:37;31.50;88.30
37240;DHT22;23130;48.760;9.178;2023-06-19T11:30:05;31.50;88.00
37240;DHT22;23130;48.760;9.178;2023-06-19T11:32:34;31.50;87.90
37240;DHT22;23130;48.760;9.178;2023-06-19T11:35:11;31.40;88.50
37240;DHT22;23130;48.760;9.178;2023-06-19T11:37:40;31.50;88.40
37240;DHT22;23130;48.760;9.178;2023-06-19T11:40:07;31.20;88.10
37240;DHT22;23130;48.760;9.178;2023-06-19T11:42:52;31.10;87.90
37240;DHT22;23130;48.760;9.178;2023-06-19T11:45:18;31.30;87.00
37240;DHT22;23130;48.760;9.178;2023-06-19T11:47:45;31.10;87.30
37240;DHT22;23130;48.760;9.178;2023-06-19T11:50:11;31.50;87.70
37240;DHT22;23130;48.760;9.178;2023-06-19T11:52:38;31.80;86.40
37240;DHT22;23130;48.760;9.178;2023-06-19T11:55:04;31.90;86.50
37240;DHT22;23130;48.760;9.178;2023-06-19T11:57:30;31.70;86.80
37240;DHT22;23130;48.760;9.178;2023-06-19T11:59:56;31.80;86.60
37240;DHT22;23130;48.760;9.178;2023-06-19T12:02:21;31.90;87.70
37240;DHT22;23130;48.760;9.178;2023-06-19T12:04:47;32.00;87.40
37240;DHT22;23130;48.760;9.178;2023-06-19T12:07:12;32.00;86.50
37240;DHT22;23130;48.760;9.178;2023-06-19T12:09:38;32.00;86.50
37240;DHT22;23130;48.760;9.178;2023-06-19T12:12:05;32.10;85.90
37240;DHT22;23130;48.760;9.178;2023-06-19T12:14:31;31.80;86.20
37240;DHT22;23130;48.760;9.178;2023-06-19T12:16:57;31.70;86.40
37240;DHT22;23130;48.760;9.178;2023-06-19T12:19:22;31.70;86.00
37240;DHT22;23130;48.760;9.178;2023-06-19T12:21:48;31.80;86.40
37240;DHT22;23130;48.760;9.178;2023-06-19T12:24:13;31.70;85.50
37240;DHT22;23130;48.760;9.178;2023-06-19T12:26:39;31.70;85.20
37240;DHT22;23130;48.760;9.178;2023-06-19T12:29:06;31.60;85.60
37240;DHT22;23130;48.760;9.178;2023-06-19T12:31:33;31.50;85.40
37240;DHT22;23130;48.760;9.178;2023-06-19T12:33:59;31.80;85.60
37240;DHT22;23130;48.760;9.178;2023-06-19T12:36:26;32.00;85.70
37240;DHT22;23130;48.760;9.178;2023-06-19T12:38:53;32.10;84.50
37240;DHT22;23130;48.760;9.178;2023-06-19T12:41:22;32.10;85.60
37240;DHT22;23130;48.760;9.178;2023-06-19T12:43:48;32.20;84.90
37240;DHT22;23130;48.760;9.178;2023-06-19T12:46:13;32.40;85.00
37240;DHT22;23130;48.760;9.178;2023-06-19T12:48:40;32.00;84.30
37240;DHT22;23130;48.760;9.178;2023-06-19T12:51:06;32.00;84.90
37240;DHT22;23130;48.760;9.178;2023-06-19T12:53:31;32.00;85.70
37240;DHT22;23130;48.760;9.178;2023-06-19T12:55:57;31.70;86.60
37240;DHT22;23130;48.760;9.178;2023-06-19T12:58:23;31.60;86.10
37240;DHT22;23130;48.760;9.178;2023-06-19T13:00:49;31.30;85.20
37240;DHT22;23130;48.760;9.178;2023-06-19T13:03:14;31.30;85.70
37240;DHT22;23130;48.760;9.178;2023-06-19T13:05:40;31.30;85.30
37240;DHT22;23130;48.760;9.178;2023-06-19T13:08:05;31.30;86.50
37240;DHT22;23130;48.760;9.178;2023-06-19T13:10:31;31.50;85.40
37240;DHT22;23130;48.760;9.178;2023-06-19T13:12:56;31.60;84.90
37240;DHT22;23130;48.760;9.178;2023-06-19T13:15:24;31.60;85.80
37240;DHT22;23130;48.760;9.178;2023-06-19T13:17:50;31.40;85.10
37240;DHT22;23130;48.760;9.178;2023-06-19T13:20:15;31.50;85.50
37240;DHT22;23130;48.760;9.178;2023-06-19T13:22:41;31.50;86.20
37240;DHT22;23130;48.760;9.178;2023-06-19T13:25:07;31.40;84.80
37240;DHT22;23130;48.760;9.178;2023-06-19T13:27:33;31.50;84.80
37240;DHT22;23130;48.760;9.178;2023-06-19T13:30:00;31.70;84.30
37240;DHT22;23130;48.760;9.178;2023-06-19T13:32:26;31.50;85.50
37240;DHT22;23130;48.760;9.178;2023-06-19T13:34:51;31.60;85.30
37240;DHT22;23130;48.760;9.178;2023-06-19T13:37:18;31.20;86.90
37240;DHT22;23130;48.760;9.178;2023-06-19T13:39:44;31.00;85.70
37240;DHT22;23130;48.760;9.178;2023-06-19T13:42:09;31.00;85.80
37240;DHT22;23130;48.760;9.178;2023-06-19T13:44:37;30.90;85.20
37240;DHT22;23130;48.760;9.178;2023-06-19T13:47:03;30.50;86.70
37240;DHT22;23130;48.760;9.178;2023-06-19T13:49:29;30.60;87.10
37240;DHT22;23130;48.760;9.178;2023-06-19T13:51:55;30.80;86.30
37240;DHT22;23130;48.760;9.178;2023-06-19T13:54:21;30.90;86.20
37240;DHT22;23130;48.760;9.178;2023-06-19T13:56:47;31.00;85.50
37240;DHT22;23130;48.760;9.178;2023-06-19T13:59:13;30.80;85.60
37240;DHT22;23130;48.760;9.178;2023-06-19T14:01:39;30.70;85.90
37240;DHT22;23130;48.760;9.178;2023-06-19T14:04:05;30.70;86.50
37240;DHT22;23130;48.760;9.178;2023-06-19T14:06:31;31.00;86.40
37240;DHT22;23130;48.760;9.178;2023-06-19T14:08:56;31.00;85.60
37240;DHT22;23130;48.760;9.178;2023-06-19T14:11:22;31.00;85.10
37240;DHT22;23130;48.760;9.178;2023-06-19T14:13:47;31.00;85.30
37240;DHT22;23130;48.760;9.178;2023-06-19T14:16:13;30.80;85.50
37240;DHT22;23130;48.760;9.178;2023-06-19T14:18:39;30.60;85.10
37240;DHT22;23130;48.760;9.178;2023-06-19T14:21:04;30.60;85.30
37240;DHT22;23130;48.760;9.178;2023-06-19T14:23:30;30.90;85.00
37240;DHT22;23130;48.760;9.178;2023-06-19T14:25:56;31.10;85.50
37240;DHT22;23130;48.760;9.178;2023-06-19T14:28:22;31.20;84.10
37240;DHT22;23130;48.760;9.178;2023-06-19T14:30:47;31.30;84.40
37240;DHT22;23130;48.760;9.178;2023-06-19T14:33:13;31.20;84.10
37240;DHT22;23130;48.760;9.178;2023-06-19T14:35:42;31.20;83.90
37240;DHT22;23130;48.760;9.178;2023-06-19T14:38:10;31.40;84.20
37240;DHT22;23130;48.760;9.178;2023-06-19T14:40:35;31.70;84.40
37240;DHT22;23130;48.760;9.178;2023-06-19T14:43:01;31.70;83.00
37240;DHT22;23130;48.760;9.178;2023-06-19T14:45:26;31.80;83.30
37240;DHT22;23130;48.760;9.178;2023-06-19T14:47:52;31.60;83.30
37240;DHT22;23130;48.760;9.178;2023-06-19T14:50:17;31.70;82.90
37240;DHT22;23130;48.760;9.178;2023-06-19T14:52:43;31.60;82.90
37240;DHT22;23130;48.760;9.178;2023-06-19T14:55:10;31.70;83.20
37240;DHT22;23130;48.760;9.178;2023-06-19T14:57:36;31.50;82.30
37240;DHT22;23130;48.760;9.178;2023-06-19T15:00:02;31.40;83.20
37240;DHT22;23130;48.760;9.178;2023-06-19T15:02:28;31.20;82.10
37240;DHT22;23130;48.760;9.178;2023-06-19T15:04:53;31.20;82.20
37240;DHT22;23130;48.760;9.178;2023-06-19T15:07:19;31.30;82.80
37240;DHT22;23130;48.760;9.178;2023-06-19T15:09:44;31.70;82.80
37240;DHT22;23130;48.760;9.178;2023-06-19T15:12:10;32.00;83.20
37240;DHT22;23130;48.760;9.178;2023-06-19T15:14:35;32.00;83.30
37240;DHT22;23130;48.760;9.178;2023-06-19T15:17:03;31.80;83.40
37240;DHT22;23130;48.760;9.178;2023-06-19T15:19:29;31.80;84.00
37240;DHT22;23130;48.760;9.178;2023-06-19T15:21:54;31.80;83.20
37240;DHT22;23130;48.760;9.178;2023-06-19T15:24:20;31.90;83.50
37240;DHT22;23130;48.760;9.178;2023-06-19T15:26:45;31.70;84.30
37240;DHT22;23130;48.760;9.178;2023-06-19T15:29:11;31.60;84.00
37240;DHT22;23130;48.760;9.178;2023-06-19T15:31:37;31.50;84.30
37240;DHT22;23130;48.760;9.178;2023-06-19T15:34:02;31.50;84.30
37240;DHT22;23130;48.760;9.178;2023-06-19T15:36:28;31.50;84.50